sensor_id;sensor_type;location;lat;lon;timestamp;pressure;altitude;pressure_sealevel;temperature;humidity
11440;BME280;5776;51.814;4.510;2023-09-18T00:00:51;100621.00;;;17.94;100.00
11440;BME280;5776;51.814;4.510;2023-09-18T00:03:18;100613.53;;;17.95;100.00
11440;BME280;5776;51.814;4.510;2023-09-18T00:05:46;100611.25;;;17.97;100.00
11440;BME280;5776;51.814;4.510;2023-09-18T00:08:13;100615.97;;;17.96;100.00
11440;BME280;5776;51.814;4.510;2023-09-18T00:10:39;100602.56;;;17.95;100.00
11440;BME280;5776;51.814;4.510;2023-09-18T00:13:06;100599.00;;;17.94;100.00
11440;BME280;5776;51.814;4.510;2023-09-18T00:15:32;100589.97;;;17.94;100.00
11440;BME280;5776;51.814;4.510;2023-09-18T00:17:59;100584.47;;;17.94;100.00
11440;BME280;5776;51.814;4.510;2023-09-18T00:20:25;100582.88;;;17.92;100.00
11440;BME280;5776;51.814;4.510;2023-09-18T00:22:56;100575.41;;;17.93;100.00
11440;BME280;5776;51.814;4.510;2023-09-18T00:25:22;100583.66;;;17.93;100.00
11440;BME280;5776;51.814;4.510;2023-09-18T00:27:48;100578.16;;;17.93;100.00
11440;BME280;5776;51.814;4.510;2023-09-18T00:30:14;100571.88;;;17.92;100.00
11440;BME280;5776;51.814;4.510;2023-09-18T00:32:40;100560.09;;;17.92;100.00
11440;BME280;5776;51.814;4.510;2023-09-18T00:35:07;100547.50;;;17.91;100.00
11440;BME280;5776;51.814;4.510;2023-09-18T00:37:33;100530.19;;;17.90;100.00
11440;BME280;5776;51.814;4.510;2023-09-18T00:39:59;100512.94;;;17.90;100.00
11440;BME280;5776;51.814;4.510;2023-09-18T00:42:25;100495.66;;;17.89;100.00
11440;BME280;5776;51.814;4.510;2023-09-18T00:44:51;100492.91;;;17.89;100.00
11440;BME280;5776;51.814;4.510;2023-09-18T00:47:16;100488.19;;;17.90;100.00
11440;BME280;5776;51.814;4.510;2023-09-18T00:49:45;100492.91;;;17.89;100.00
11440;BME280;5776;51.814;4.510;2023-09-18T00:52:11;100481.91;;;17.89;100.00
11440;BME280;5776;51.814;4.510;2023-09-18T00:54:38;100478.38;;;17.89;100.00
11440;BME280;5776;51.814;4.510;2023-09-18T00:57:06;100479.97;;;17.90;100.00
11440;BME280;5776;51.814;4.510;2023-09-18T00:59:33;100470.13;;;17.89;100.00
11440;BME280;5776;51.814;4.510;2023-09-18T01:02:00;100476.75;;;17.88;100.00
11440;BME280;5776;51.814;4.510;2023-09-18T01:04:26;100487.41;;;17.89;100.00
11440;BME280;5776;51.814;4.510;2023-09-18T01:06:54;100483.88;;;17.89;100.00
11440;BME280;5776;51.814;4.510;2023-09-18T01:09:22;100478.38;;;17.89;100.00
11440;BME280;5776;51.814;4.510;2023-09-18T01:11:54;100477.56;;;17.88;100.00
11440;BME280;5776;51.814;4.510;2023-09-18T01:14:57;100472.88;;;17.89;100.00
11440;BME280;5776;51.814;4.510;2023-09-18T01:17:27;100484.66;;;17.89;100.00
11440;BME280;5776;51.814;4.510;2023-09-18T01:19:54;100482.25;;;17.88;100.00
11440;BME280;5776;51.814;4.510;2023-09-18T01:22:19;100489.34;;;17.89;100.00
11440;BME280;5776;51.814;4.510;2023-09-18T01:24:46;100490.50;;;17.88;100.00
11440;BME280;5776;51.814;4.510;2023-09-18T01:27:17;100482.25;;;17.88;100.00
11440;BME280;5776;51.814;4.510;2023-09-18T01:29:44;100471.25;;;17.88;100.00
11440;BME280;5776;51.814;4.510;2023-09-18T01:32:11;100464.19;;;17.87;100.00
11440;BME280;5776;51.814;4.510;2023-09-18T01:34:39;100470.47;;;17.87;100.00
11440;BME280;5776;51.814;4.510;2023-09-18T01:37:09;100459.47;;;17.87;100.00
11440;BME280;5776;51.814;4.510;2023-09-18T01:39:35;100472.09;;;17.88;100.00
11440;BME280;5776;51.814;4.510;2023-09-18T01:42:03;100474.84;;;17.88;100.00
11440;BME280;5776;51.814;4.510;2023-09-18T01:44:32;100483.06;;;17.88;100.00
11440;BME280;5776;51.814;4.510;2023-09-18T01:47:00;100467.72;;;17.87;100.00
11440;BME280;5776;51.814;4.510;2023-09-18T01:49:29;100475.97;;;17.87;100.00
11440;BME280;5776;51.814;4.510;2023-09-18T01:51:56;100480.31;;;17.88;100.00
11440;BME280;5776;51.814;4.510;2023-09-18T01:54:22;100481.44;;;17.87;100.00
11440;BME280;5776;51.814;4.510;2023-09-18T01:56:47;100481.44;;;17.87;100.00
11440;BME280;5776;51.814;4.510;2023-09-18T01:59:13;100487.75;;;17.88;100.00
11440;BME280;5776;51.814;4.510;2023-09-18T02:01:39;100489.69;;;17.87;100.00
11440;BME280;5776;51.814;4.510;2023-09-18T02:04:06;100496.81;;;17.88;100.00
11440;BME280;5776;51.814;4.510;2023-09-18T02:06:33;100497.94;;;17.87;100.00
11440;BME280;5776;51.814;4.510;2023-09-18T02:08:59;100496.34;;;17.86;100.00
11440;BME280;5776;51.814;4.510;2023-09-18T02:11:27;100496.34;;;17.86;100.00
11440;BME280;5776;51.814;4.510;2023-09-18T02:13:53;100490.84;;;17.86;100.00
11440;BME280;5776;51.814;4.510;2023-09-18T02:16:19;100480.66;;;17.87;100.00
11440;BME280;5776;51.814;4.510;2023-09-18T02:18:49;100467.72;;;17.87;100.00
11440;BME280;5776;51.814;4.510;2023-09-18T02:21:20;100475.16;;;17.87;100.00
11440;BME280;5776;51.814;4.510;2023-09-18T02:23:50;100468.50;;;17.88;100.00
11440;BME280;5776;51.814;4.510;2023-09-18T02:26:22;100475.97;;;17.87;100.00
11440;BME280;5776;51.814;4.510;2023-09-18T02:28:49;100455.59;;;17.88;100.00
11440;BME280;5776;51.814;4.510;2023-09-18T02:31:15;100439.13;;;17.88;100.00
11440;BME280;5776;51.814;4.510;2023-09-18T02:33:43;100432.00;;;17.87;100.00
11440;BME280;5776;51.814;4.510;2023-09-18T02:36:08;100423.75;;;17.87;100.00
11440;BME280;5776;51.814;4.510;2023-09-18T02:38:34;100407.28;;;17.87;100.00
11440;BME280;5776;51.814;4.510;2023-09-18T02:41:00;100395.16;;;17.88;100.00
11440;BME280;5776;51.814;4.510;2023-09-18T02:43:26;100377.88;;;17.88;100.00
11440;BME280;5776;51.814;4.510;2023-09-18T02:45:53;100380.59;;;17.88;100.00
11440;BME280;5776;51.814;4.510;2023-09-18T02:48:19;100397.91;;;17.88;100.00
11440;BME280;5776;51.814;4.510;2023-09-18T02:50:45;100379.03;;;17.87;100.00
11440;BME280;5776;51.814;4.510;2023-09-18T02:53:23;100365.28;;;17.87;100.00
11440;BME280;5776;51.814;4.510;2023-09-18T02:55:50;100352.34;;;17.87;100.00
11440;BME280;5776;51.814;4.510;2023-09-18T02:58:17;100360.59;;;17.87;100.00
11440;BME280;5776;51.814;4.510;2023-09-18T03:00:47;100346.06;;;17.87;100.00
11440;BME280;5776;51.814;4.510;2023-09-18T03:03:14;100360.59;;;17.87;100.00
11440;BME280;5776;51.814;4.510;2023-09-18T03:05:41;100386.47;;;17.86;100.00
11440;BME280;5776;51.814;4.510;2023-09-18T03:08:08;100425.72;;;17.87;100.00
11440;BME280;5776;51.814;4.510;2023-09-18T03:10:36;100442.19;;;17.87;100.00
11440;BME280;5776;51.814;4.510;2023-09-18T03:13:04;100422.63;;;17.88;100.00
11440;BME280;5776;51.814;4.510;2023-09-18T03:15:30;100395.97;;;17.89;100.00
11440;BME280;5776;51.814;4.510;2023-09-18T03:17:59;100382.56;;;17.87;100.00
11440;BME280;5776;51.814;4.510;2023-09-18T03:20:27;100407.03;;;17.92;100.00
11440;BME280;5776;51.814;4.510;2023-09-18T03:22:58;100409.91;;;17.96;100.00
11440;BME280;5776;51.814;4.510;2023-09-18T03:25:26;100406.34;;;17.96;100.00
11440;BME280;5776;51.814;4.510;2023-09-18T03:27:54;100404.41;;;17.96;100.00
11440;BME280;5776;51.814;4.510;2023-09-18T03:30:20;100411.16;;;17.99;100.00
11440;BME280;5776;51.814;4.510;2023-09-18T03:32:47;100408.75;;;17.97;100.00
11440;BME280;5776;51.814;4.510;2023-09-18T03:35:14;100394.69;;;17.99;100.00
11440;BME280;5776;51.814;4.510;2023-09-18T03:37:47;100410.47;;;18.02;100.00
11440;BME280;5776;51.814;4.510;2023-09-18T03:40:15;100413.66;;;18.04;100.00
11440;BME280;5776;51.814;4.510;2023-09-18T03:42:43;100410.22;;;18.07;100.00
11440;BME280;5776;51.814;4.510;2023-09-18T03:45:10;100387.44;;;18.06;100.00
11440;BME280;5776;51.814;4.510;2023-09-18T03:47:37;100372.19;;;18.09;100.00
11440;BME280;5776;51.814;4.510;2023-09-18T03:50:05;100361.09;;;18.05;100.00
11440;BME280;5776;51.814;4.510;2023-09-18T03:52:32;100370.56;;;18.08;100.00
11440;BME280;5776;51.814;4.510;2023-09-18T03:54:58;100360.50;;;18.12;100.00
11440;BME280;5776;51.814;4.510;2023-09-18T03:57:24;100330.28;;;18.12;100.00
11440;BME280;5776;51.814;4.510;2023-09-18T03:59:50;100328.31;;;18.12;100.00
11440;BME280;5776;51.814;4.510;2023-09-18T04:02:16;100321.22;;;18.11;100.00
11440;BME280;5776;51.814;4.510;2023-09-18T04:04:42;100316.88;;;18.10;100.00
11440;BME280;5776;51.814;4.510;2023-09-18T04:07:08;100322.03;;;18.12;100.00
11440;BME280;5776;51.814;4.510;2023-09-18T04:09:34;100317.69;;;18.11;100.00
11440;BME280;5776;51.814;4.510;2023-09-18T04:12:05;100322.38;;;18.10;100.00
11440;BME280;5776;51.814;4.510;2023-09-18T04:14:33;100317.69;;;18.11;100.00
11440;BME280;5776;51.814;4.510;2023-09-18T04:16:59;100323.19;;;18.11;100.00
11440;BME280;5776;51.814;4.510;2023-09-18T04:19:27;100323.97;;;18.11;100.00
11440;BME280;5776;51.814;4.510;2023-09-18T04:21:55;100309.78;;;18.09;100.00
11440;BME280;5776;51.814;4.510;2023-09-18T04:24:21;100319.28;;;18.12;100.00
11440;BME280;5776;51.814;4.510;2023-09-18T04:26:46;100322.03;;;18.12;100.00
11440;BME280;5776;51.814;4.510;2023-09-18T04:29:12;100326.72;;;18.11;100.00
11440;BME280;5776;51.814;4.510;2023-09-18T04:31:37;100340.09;;;18.13;100.00
11440;BME280;5776;51.814;4.510;2023-09-18T04:34:06;100332.22;;;18.11;100.00
11440;BME280;5776;51.814;4.510;2023-09-18T04:36:32;100333.00;;;18.12;100.00
11440;BME280;5776;51.814;4.510;2023-09-18T04:38:58;100328.31;;;18.12;100.00
11440;BME280;5776;51.814;4.510;2023-09-18T04:41:24;100331.44;;;18.11;100.00
11440;BME280;5776;51.814;4.510;2023-09-18T04:43:49;100323.97;;;18.11;100.00
11440;BME280;5776;51.814;4.510;2023-09-18T04:46:16;100328.69;;;18.11;100.00
11440;BME280;5776;51.814;4.510;2023-09-18T04:48:42;100323.63;;;18.13;100.00
11440;BME280;5776;51.814;4.510;2023-09-18T04:51:07;100311.03;;;18.12;100.00
11440;BME280;5776;51.814;4.510;2023-09-18T04:53:33;100300.84;;;18.12;100.00
11440;BME280;5776;51.814;4.510;2023-09-18T04:55:59;100287.09;;;18.12;100.00
11440;BME280;5776;51.814;4.510;2023-09-18T04:58:26;100278.06;;;18.12;100.00
11440;BME280;5776;51.814;4.510;2023-09-18T05:00:56;100284.34;;;18.12;100.00
11440;BME280;5776;51.814;4.510;2023-09-18T05:03:22;100294.22;;;18.13;100.00
11440;BME280;5776;51.814;4.510;2023-09-18T05:05:48;100289.84;;;18.12;100.00
11440;BME280;5776;51.814;4.510;2023-09-18T05:08:16;100285.50;;;18.11;100.00
11440;BME280;5776;51.814;4.510;2023-09-18T05:10:42;100273.72;;;18.11;100.00
11440;BME280;5776;51.814;4.510;2023-09-18T05:13:11;100272.13;;;18.10;100.00
11440;BME280;5776;51.814;4.510;2023-09-18T05:15:37;100288.97;;;18.08;100.00
11440;BME280;5776;51.814;4.510;2023-09-18T05:18:04;100285.84;;;18.10;100.00
11440;BME280;5776;51.814;4.510;2023-09-18T05:20:30;100288.25;;;18.11;100.00
11440;BME280;5776;51.814;4.510;2023-09-18T05:22:58;100289.06;;;18.12;100.00
11440;BME280;5776;51.814;4.510;2023-09-18T05:25:26;100280.47;;;18.13;100.00
11440;BME280;5776;51.814;4.510;2023-09-18T05:27:53;100276.09;;;18.12;100.00
11440;BME280;5776;51.814;4.510;2023-09-18T05:30:26;100265.91;;;18.13;100.00
11440;BME280;5776;51.814;4.510;2023-09-18T05:32:58;100267.53;;;18.14;100.00
11440;BME280;5776;51.814;4.510;2023-09-18T05:35:50;100264.78;;;18.14;100.00
11440;BME280;5776;51.814;4.510;2023-09-18T05:38:16;100267.84;;;18.12;100.00
11440;BME280;5776;51.814;4.510;2023-09-18T05:40:44;100262.81;;;18.14;100.00
11440;BME280;5776;51.814;4.510;2023-09-18T05:43:10;100263.97;;;18.13;100.00
11440;BME280;5776;51.814;4.510;2023-09-18T05:45:37;100258.47;;;18.13;100.00
11440;BME280;5776;51.814;4.510;2023-09-18T05:48:04;100267.53;;;18.14;100.00
11440;BME280;5776;51.814;4.510;2023-09-18T05:50:31;100274.16;;;18.13;100.00
11440;BME280;5776;51.814;4.510;2023-09-18T05:52:58;100272.22;;;18.13;100.00
11440;BME280;5776;51.814;4.510;2023-09-18T05:55:27;100279.66;;;18.13;100.00
11440;BME280;5776;51.814;4.510;2023-09-18T05:57:54;100287.47;;;18.11;100.00
11440;BME280;5776;51.814;4.510;2023-09-18T06:00:19;100278.78;;;18.09;100.00
11440;BME280;5776;51.814;4.510;2023-09-18T06:02:47;100286.56;;;18.07;100.00
11440;BME280;5776;51.814;4.510;2023-09-18T06:05:13;100288.97;;;18.08;100.00
11440;BME280;5776;51.814;4.510;2023-09-18T06:07:41;100286.56;;;18.07;100.00
11440;BME280;5776;51.814;4.510;2023-09-18T06:10:09;100291.59;;;18.05;100.00
11440;BME280;5776;51.814;4.510;2023-09-18T06:12:37;100295.97;;;18.06;100.00
11440;BME280;5776;51.814;4.510;2023-09-18T06:15:03;100297.34;;;18.00;100.00
11440;BME280;5776;51.814;4.510;2023-09-18T06:17:30;100304.81;;;17.99;100.00
11440;BME280;5776;51.814;4.510;2023-09-18T06:19:56;100291.88;;;18.00;100.00
11440;BME280;5776;51.814;4.510;2023-09-18T06:22:21;100291.88;;;18.00;100.00
11440;BME280;5776;51.814;4.510;2023-09-18T06:24:47;100291.53;;;18.01;100.00
11440;BME280;5776;51.814;4.510;2023-09-18T06:27:13;100288.31;;;17.99;100.00
11440;BME280;5776;51.814;4.510;2023-09-18T06:29:39;100291.41;;;17.98;100.00
11440;BME280;5776;51.814;4.510;2023-09-18T06:32:07;100287.88;;;17.97;100.00
11440;BME280;5776;51.814;4.510;2023-09-18T06:34:33;100290.63;;;17.97;100.00
11440;BME280;5776;51.814;4.510;2023-09-18T06:36:59;100288.22;;;17.96;100.00
11440;BME280;5776;51.814;4.510;2023-09-18T06:39:25;100290.16;;;17.95;100.00
11440;BME280;5776;51.814;4.510;2023-09-18T06:41:52;100291.78;;;17.96;100.00
11440;BME280;5776;51.814;4.510;2023-09-18T06:44:19;100298.78;;;17.94;100.00
11440;BME280;5776;51.814;4.510;2023-09-18T06:46:45;100297.94;;;17.93;100.00
11440;BME280;5776;51.814;4.510;2023-09-18T06:49:10;100293.63;;;17.92;100.00
11440;BME280;5776;51.814;4.510;2023-09-18T06:51:36;100299.13;;;17.92;100.00
11440;BME280;5776;51.814;4.510;2023-09-18T06:54:02;100291.66;;;17.92;100.00
11440;BME280;5776;51.814;4.510;2023-09-18T06:56:28;100296.38;;;17.92;100.00
11440;BME280;5776;51.814;4.510;2023-09-18T06:58:54;100293.16;;;17.90;100.00
11440;BME280;5776;51.814;4.510;2023-09-18T07:01:20;100297.88;;;17.89;100.00
11440;BME280;5776;51.814;4.510;2023-09-18T07:03:47;100293.53;;;17.88;100.00
11440;BME280;5776;51.814;4.510;2023-09-18T07:06:16;100287.59;;;17.86;100.00
11440;BME280;5776;51.814;4.510;2023-09-18T07:08:46;100295.81;;;17.86;100.00
11440;BME280;5776;51.814;4.510;2023-09-18T07:11:16;100293.09;;;17.86;100.00
11440;BME280;5776;51.814;4.510;2023-09-18T07:13:42;100294.22;;;17.85;100.00
11440;BME280;5776;51.814;4.510;2023-09-18T07:16:09;100296.53;;;17.83;100.00
11440;BME280;5776;51.814;4.510;2023-09-18T07:18:36;100300.88;;;17.84;100.00
11440;BME280;5776;51.814;4.510;2023-09-18T07:21:02;100307.53;;;17.83;100.00
11440;BME280;5776;51.814;4.510;2023-09-18T07:23:28;100313.00;;;17.83;100.00
11440;BME280;5776;51.814;4.510;2023-09-18T07:25:54;100319.63;;;17.82;100.00
11440;BME280;5776;51.814;4.510;2023-09-18T07:28:20;100321.59;;;17.82;100.00
11440;BME280;5776;51.814;4.510;2023-09-18T07:30:46;100315.31;;;17.81;100.00
11440;BME280;5776;51.814;4.510;2023-09-18T07:33:14;100329.03;;;17.81;100.00
11440;BME280;5776;51.814;4.510;2023-09-18T07:35:49;100332.91;;;17.80;100.00
11440;BME280;5776;51.814;4.510;2023-09-18T07:38:17;100338.06;;;17.82;100.00
11440;BME280;5776;51.814;4.510;2023-09-18T07:40:45;100336.47;;;17.81;100.00
11440;BME280;5776;51.814;4.510;2023-09-18T07:43:11;100335.66;;;17.80;100.00
11440;BME280;5776;51.814;4.510;2023-09-18T07:45:38;100332.13;;;17.80;100.00
11440;BME280;5776;51.814;4.510;2023-09-18T07:48:10;100343.91;;;17.80;100.00
11440;BME280;5776;51.814;4.510;2023-09-18T07:50:36;100350.53;;;17.79;100.00
11440;BME280;5776;51.814;4.510;2023-09-18T07:53:02;100356.00;;;17.79;100.00
11440;BME280;5776;51.814;4.510;2023-09-18T07:55:28;100359.59;;;17.80;100.00
11440;BME280;5776;51.814;4.510;2023-09-18T07:57:55;100364.75;;;17.81;100.00
11440;BME280;5776;51.814;4.510;2023-09-18T08:00:20;100365.19;;;17.83;100.00
11440;BME280;5776;51.814;4.510;2023-09-18T08:02:48;100362.09;;;17.85;100.00
11440;BME280;5776;51.814;4.510;2023-09-18T08:05:21;100359.47;;;17.88;100.00
11440;BME280;5776;51.814;4.510;2023-09-18T08:07:47;100364.25;;;17.91;100.00
11440;BME280;5776;51.814;4.510;2023-09-18T08:10:13;100356.09;;;17.95;100.00
11440;BME280;5776;51.814;4.510;2023-09-18T08:12:39;100353.00;;;17.97;100.00
11440;BME280;5776;51.814;4.510;2023-09-18T08:15:06;100349.47;;;17.96;100.00
11440;BME280;5776;51.814;4.510;2023-09-18T08:17:32;100353.09;;;18.00;100.00
11440;BME280;5776;51.814;4.510;2023-09-18T08:19:58;100368.09;;;18.03;100.00
11440;BME280;5776;51.814;4.510;2023-09-18T08:22:24;100366.16;;;18.03;100.00
11440;BME280;5776;51.814;4.510;2023-09-18T08:24:50;100361.91;;;18.06;100.00
11440;BME280;5776;51.814;4.510;2023-09-18T08:27:18;100373.78;;;18.10;100.00
11440;BME280;5776;51.814;4.510;2023-09-18T08:29:46;100373.44;;;18.11;100.00
11440;BME280;5776;51.814;4.510;2023-09-18T08:32:12;100380.63;;;18.16;100.00
11440;BME280;5776;51.814;4.510;2023-09-18T08:34:38;100375.56;;;18.18;100.00
11440;BME280;5776;51.814;4.510;2023-09-18T08:37:04;100381.97;;;18.22;100.00
11440;BME280;5776;51.814;4.510;2023-09-18T08:39:29;100374.63;;;18.26;100.00
11440;BME280;5776;51.814;4.510;2023-09-18T08:41:59;100390.41;;;18.29;100.00
11440;BME280;5776;51.814;4.510;2023-09-18T08:44:27;100385.38;;;18.31;100.00
11440;BME280;5776;51.814;4.510;2023-09-18T08:46:57;100384.34;;;18.36;100.00
11440;BME280;5776;51.814;4.510;2023-09-18T08:49:26;100398.16;;;18.40;100.00
11440;BME280;5776;51.814;4.510;2023-09-18T08:51:54;100398.25;;;18.43;100.00
11440;BME280;5776;51.814;4.510;2023-09-18T08:54:21;100408.56;;;18.46;100.00
11440;BME280;5776;51.814;4.510;2023-09-18T08:56:49;100398.81;;;18.49;100.00
11440;BME280;5776;51.814;4.510;2023-09-18T08:59:15;100405.91;;;18.50;100.00
11440;BME280;5776;51.814;4.510;2023-09-18T09:01:42;100405.56;;;18.51;100.00
11440;BME280;5776;51.814;4.510;2023-09-18T09:04:08;100414.59;;;18.52;100.00
11440;BME280;5776;51.814;4.510;2023-09-18T09:06:33;100412.63;;;18.52;100.00
11440;BME280;5776;51.814;4.510;2023-09-18T09:08:59;100411.50;;;18.53;100.00
11440;BME280;5776;51.814;4.510;2023-09-18T09:11:24;100412.63;;;18.52;100.00
11440;BME280;5776;51.814;4.510;2023-09-18T09:14:10;100409.53;;;18.54;100.00
11440;BME280;5776;51.814;4.510;2023-09-18T09:16:54;100418.13;;;18.52;100.00
11440;BME280;5776;51.814;4.510;2023-09-18T09:19:40;100422.84;;;18.52;100.00
11440;BME280;5776;51.814;4.510;2023-09-18T09:22:07;100424.44;;;18.53;100.00
11440;BME280;5776;51.814;4.510;2023-09-18T09:24:38;100420.88;;;18.52;100.00
11440;BME280;5776;51.814;4.510;2023-09-18T09:27:03;100429.94;;;18.53;100.00
11440;BME280;5776;51.814;4.510;2023-09-18T09:29:29;100432.25;;;18.51;100.00
11440;BME280;5776;51.814;4.510;2023-09-18T09:31:55;100429.59;;;18.54;100.00
11440;BME280;5776;51.814;4.510;2023-09-18T09:34:26;100429.94;;;18.53;100.00
11440;BME280;5776;51.814;4.510;2023-09-18T09:36:53;100429.25;;;18.56;100.00
11440;BME280;5776;51.814;4.510;2023-09-18T09:39:19;100427.19;;;18.53;100.00
11440;BME280;5776;51.814;4.510;2023-09-18T09:41:47;100435.53;;;18.56;100.00
11440;BME280;5776;51.814;4.510;2023-09-18T09:44:14;100436.34;;;18.57;100.00
11440;BME280;5776;51.814;4.510;2023-09-18T09:46:50;100428.88;;;18.57;100.00
11440;BME280;5776;51.814;4.510;2023-09-18T09:49:17;100435.63;;;18.60;100.00
11440;BME280;5776;51.814;4.510;2023-09-18T09:51:45;100432.88;;;18.60;100.00
11440;BME280;5776;51.814;4.510;2023-09-18T09:54:11;100434.91;;;18.63;100.00
11440;BME280;5776;51.814;4.510;2023-09-18T09:56:45;100440.88;;;18.65;100.00
11440;BME280;5776;51.814;4.510;2023-09-18T09:59:13;100446.13;;;18.70;100.00
11440;BME280;5776;51.814;4.510;2023-09-18T10:01:39;100443.81;;;18.72;100.00
11440;BME280;5776;51.814;4.510;2023-09-18T10:04:12;100431.31;;;18.75;100.00
11440;BME280;5776;51.814;4.510;2023-09-18T10:06:42;100434.88;;;18.75;100.00
11440;BME280;5776;51.814;4.510;2023-09-18T10:09:10;100437.28;;;18.77;100.00
11440;BME280;5776;51.814;4.510;2023-09-18T10:11:41;100442.44;;;18.78;100.00
11440;BME280;5776;51.814;4.510;2023-09-18T10:14:14;100447.50;;;18.76;100.00
11440;BME280;5776;51.814;4.510;2023-09-18T10:16:45;100440.13;;;18.81;100.00
11440;BME280;5776;51.814;4.510;2023-09-18T10:19:28;100447.25;;;18.82;100.00
11440;BME280;5776;51.814;4.510;2023-09-18T10:22:24;100439.00;;;18.82;100.00
11440;BME280;5776;51.814;4.510;2023-09-18T10:24:54;100439.31;;;18.80;100.00
11440;BME280;5776;51.814;4.510;2023-09-18T10:27:26;100437.81;;;18.83;100.00
11440;BME280;5776;51.814;4.510;2023-09-18T10:29:54;100437.03;;;18.82;100.00
11440;BME280;5776;51.814;4.510;2023-09-18T10:32:22;100433.47;;;18.82;100.00
11440;BME280;5776;51.814;4.510;2023-09-18T10:34:48;100427.19;;;18.81;100.00
11440;BME280;5776;51.814;4.510;2023-09-18T10:37:15;100429.94;;;18.81;100.00
11440;BME280;5776;51.814;4.510;2023-09-18T10:39:42;100421.78;;;18.85;100.00
11440;BME280;5776;51.814;4.510;2023-09-18T10:42:11;100423.00;;;18.87;100.00
11440;BME280;5776;51.814;4.510;2023-09-18T10:44:38;100426.94;;;18.86;100.00
11440;BME280;5776;51.814;4.510;2023-09-18T10:47:09;100435.78;;;18.95;100.00
11440;BME280;5776;51.814;4.510;2023-09-18T10:49:36;100433.16;;;18.99;100.00
11440;BME280;5776;51.814;4.510;2023-09-18T10:52:03;100430.47;;;19.03;100.00
11440;BME280;5776;51.814;4.510;2023-09-18T10:54:31;100432.09;;;19.04;100.00
11440;BME280;5776;51.814;4.510;2023-09-18T10:56:57;100427.44;;;19.08;100.00
11440;BME280;5776;51.814;4.510;2023-09-18T10:59:23;100422.72;;;19.08;100.00
11440;BME280;5776;51.814;4.510;2023-09-18T11:01:50;100418.91;;;19.13;100.00
11440;BME280;5776;51.814;4.510;2023-09-18T11:04:20;100424.88;;;19.15;100.00
11440;BME280;5776;51.814;4.510;2023-09-18T11:09:28;100427.47;;;19.24;100.00
11440;BME280;5776;51.814;4.510;2023-09-18T11:12:03;100422.81;;;19.28;100.00
11440;BME280;5776;51.814;4.510;2023-09-18T11:17:36;100425.75;;;19.35;100.00
11440;BME280;5776;51.814;4.510;2023-09-18T11:20:16;100423.00;;;19.35;100.00
11440;BME280;5776;51.814;4.510;2023-09-18T11:22:55;100426.63;;;19.39;100.00
11440;BME280;5776;51.814;4.510;2023-09-18T11:25:42;100415.63;;;19.39;100.00
11440;BME280;5776;51.814;4.510;2023-09-18T11:28:16;100425.19;;;19.45;100.00
11440;BME280;5776;51.814;4.510;2023-09-18T11:30:53;100416.66;;;19.50;100.00
11440;BME280;5776;51.814;4.510;2023-09-18T11:33:35;100409.28;;;19.54;100.00
11440;BME280;5776;51.814;4.510;2023-09-18T11:36:06;100414.41;;;19.56;100.00
11440;BME280;5776;51.814;4.510;2023-09-18T11:38:34;100418.41;;;19.58;100.00
11440;BME280;5776;51.814;4.510;2023-09-18T11:41:14;100418.84;;;19.60;100.00
11440;BME280;5776;51.814;4.510;2023-09-18T11:43:45;100408.28;;;19.62;100.00
11440;BME280;5776;51.814;4.510;2023-09-18T11:46:11;100401.59;;;19.63;100.00
11440;BME280;5776;51.814;4.510;2023-09-18T11:48:41;100408.81;;;19.68;100.00
11440;BME280;5776;51.814;4.510;2023-09-18T11:51:07;100402.59;;;19.71;100.00
11440;BME280;5776;51.814;4.510;2023-09-18T11:53:38;100403.84;;;19.74;100.00
11440;BME280;5776;51.814;4.510;2023-09-18T11:56:11;100399.75;;;19.68;100.00
11440;BME280;5776;51.814;4.510;2023-09-18T11:58:50;100396.81;;;19.76;100.00
11440;BME280;5776;51.814;4.510;2023-09-18T12:01:18;100399.19;;;19.78;100.00
11440;BME280;5776;51.814;4.510;2023-09-18T12:03:44;100398.06;;;19.79;100.00
11440;BME280;5776;51.814;4.510;2023-09-18T12:06:12;100385.94;;;19.83;100.00
11440;BME280;5776;51.814;4.510;2023-09-18T12:08:41;100389.91;;;19.86;100.00
11440;BME280;5776;51.814;4.510;2023-09-18T12:11:08;100389.56;;;19.88;100.00
11440;BME280;5776;51.814;4.510;2023-09-18T12:13:34;100380.94;;;19.89;100.00
11440;BME280;5776;51.814;4.510;2023-09-18T12:16:01;100392.38;;;19.91;100.00
11440;BME280;5776;51.814;4.510;2023-09-18T12:18:27;100388.94;;;19.94;100.00
11440;BME280;5776;51.814;4.510;2023-09-18T12:20:57;100379.94;;;19.97;100.00
11440;BME280;5776;51.814;4.510;2023-09-18T12:23:24;100383.13;;;19.99;100.00
11440;BME280;5776;51.814;4.510;2023-09-18T12:25:57;100374.91;;;20.03;100.00
11440;BME280;5776;51.814;4.510;2023-09-18T12:28:25;100377.75;;;20.06;100.00
11440;BME280;5776;51.814;4.510;2023-09-18T12:30:55;100362.44;;;20.09;100.00
11440;BME280;5776;51.814;4.510;2023-09-18T12:33:23;100360.47;;;20.10;100.00
11440;BME280;5776;51.814;4.510;2023-09-18T12:35:49;100366.84;;;20.14;100.00
11440;BME280;5776;51.814;4.510;2023-09-18T12:38:17;100368.47;;;20.15;100.00
11440;BME280;5776;51.814;4.510;2023-09-18T12:40:50;100366.13;;;20.17;100.00
11440;BME280;5776;51.814;4.510;2023-09-18T12:43:16;100357.06;;;20.16;100.00
11440;BME280;5776;51.814;4.510;2023-09-18T12:45:43;100346.47;;;20.18;100.00
11440;BME280;5776;51.814;4.510;2023-09-18T12:48:09;100348.88;;;20.20;100.00
11440;BME280;5776;51.814;4.510;2023-09-18T12:50:37;100337.44;;;20.21;100.00
11440;BME280;5776;51.814;4.510;2023-09-18T12:53:11;100342.69;;;20.26;100.00
11440;BME280;5776;51.814;4.510;2023-09-18T12:55:38;100324.19;;;20.27;100.00
11440;BME280;5776;51.814;4.510;2023-09-18T12:58:04;100315.13;;;20.26;100.00
11440;BME280;5776;51.814;4.510;2023-09-18T13:00:34;100324.63;;;20.29;100.00